createdAt,value
2022-09-16T00:00:26.146Z,-10
2022-09-16T00:01:32.405Z,-10
2022-09-16T00:02:38.683Z,-10
2022-09-16T00:03:44.959Z,-10
2022-09-16T00:04:51.242Z,-10
2022-09-16T00:05:57.506Z,-10
2022-09-16T00:07:02.800Z,-10
2022-09-16T00:08:08.126Z,-10
2022-09-16T00:09:13.387Z,-10
2022-09-16T00:10:18.674Z,-10
2022-09-16T00:11:24.958Z,-10
2022-09-16T00:12:31.221Z,-10
2022-09-16T00:13:37.503Z,-10
2022-09-16T00:14:43.768Z,-10
2022-09-16T00:15:50.045Z,-10
2022-09-16T00:16:56.310Z,-10
2022-09-16T00:18:02.576Z,-10
2022-09-16T00:19:08.856Z,-10
2022-09-16T00:20:15.123Z,-10
2022-09-16T00:21:21.413Z,-10
2022-09-16T00:22:27.676Z,-10
2022-09-16T00:23:33.945Z,-10
2022-09-16T00:24:39.228Z,-10
2022-09-16T00:25:45.513Z,-10
2022-09-16T00:26:51.775Z,-10
2022-09-16T00:27:58.045Z,-10
2022-09-16T00:29:04.327Z,-10
2022-09-16T00:30:10.591Z,-10
2022-09-16T00:31:16.878Z,-10
2022-09-16T00:32:22.163Z,-10
2022-09-16T00:33:27.458Z,-10
2022-09-16T00:34:32.748Z,-10
2022-09-16T00:35:38.036Z,-10
2022-09-16T00:36:44.324Z,-10
2022-09-16T00:37:50.591Z,-10
2022-09-16T00:38:56.874Z,-10
2022-09-16T00:40:03.165Z,-10
2022-09-16T00:41:09.398Z,-10
2022-09-16T00:42:15.678Z,-10
2022-09-16T00:43:21.939Z,-10
2022-09-16T00:44:28.216Z,-10
2022-09-16T00:45:34.486Z,-10
2022-09-16T00:46:40.760Z,-10
2022-09-16T00:47:47.033Z,-10
2022-09-16T00:48:53.302Z,-10
2022-09-16T00:49:58.596Z,-10
2022-09-16T00:51:04.865Z,-10
2022-09-16T00:52:11.145Z,-10
2022-09-16T00:53:17.408Z,-10
2022-09-16T00:54:23.680Z,-10
2022-09-16T00:55:29.965Z,-10
2022-09-16T00:56:36.259Z,-10
2022-09-16T00:57:41.531Z,-10
2022-09-16T00:58:46.815Z,-10
2022-09-16T00:59:52.114Z,-10
2022-09-16T01:00:57.414Z,-10
2022-09-16T01:02:03.676Z,-10
2022-09-16T01:03:09.947Z,-10
2022-09-16T01:04:16.221Z,-10
2022-09-16T01:05:22.491Z,-10
2022-09-16T01:06:28.765Z,-10
2022-09-16T01:07:35.042Z,-10
2022-09-16T01:08:41.396Z,-10
2022-09-16T01:09:47.578Z,-10
2022-09-16T01:10:53.853Z,-10
2022-09-16T01:12:00.128Z,-10
2022-09-16T01:13:06.393Z,-10
2022-09-16T01:14:12.664Z,-10
2022-09-16T01:15:17.956Z,-10
2022-09-16T01:16:24.229Z,-10
2022-09-16T01:17:30.501Z,-10
2022-09-16T01:18:36.776Z,-10
2022-09-16T01:19:43.054Z,-10
2022-09-16T01:20:49.315Z,-10
2022-09-16T01:21:55.588Z,-10
2022-09-16T01:23:01.882Z,-10
2022-09-16T01:24:07.163Z,-10
2022-09-16T01:25:12.467Z,-10
2022-09-16T01:26:17.751Z,-10
2022-09-16T01:27:23.048Z,-10
2022-09-16T01:28:29.325Z,-10
2022-09-16T01:29:35.582Z,-10
2022-09-16T01:30:41.852Z,-10
2022-09-16T01:31:48.127Z,-10
2022-09-16T01:32:54.402Z,-10
2022-09-16T01:34:00.691Z,-10
2022-09-16T01:35:06.967Z,-10
2022-09-16T01:36:13.208Z,-10
2022-09-16T01:37:19.488Z,-10
2022-09-16T01:38:25.753Z,-10
2022-09-16T01:39:32.029Z,-10
2022-09-16T01:40:38.309Z,-10
2022-09-16T01:41:43.588Z,-10
2022-09-16T01:42:49.864Z,-10
2022-09-16T01:43:56.138Z,-10
2022-09-16T01:45:02.410Z,-10
2022-09-16T01:46:08.680Z,-10
2022-09-16T01:47:14.952Z,-10
2022-09-16T01:48:21.218Z,-10
2022-09-16T01:49:26.528Z,-10
2022-09-16T01:50:31.819Z,-10
2022-09-16T01:51:38.103Z,-10
2022-09-16T01:52:43.383Z,-10
2022-09-16T01:53:48.679Z,-10
2022-09-16T01:54:54.954Z,-10
2022-09-16T01:56:01.214Z,-10
2022-09-16T01:57:07.492Z,-10
2022-09-16T01:58:13.760Z,-10
2022-09-16T01:59:20.041Z,-10
2022-09-16T02:00:26.302Z,-10
2022-09-16T02:01:32.634Z,-10
2022-09-16T02:02:38.846Z,-10
2022-09-16T02:03:45.122Z,-10
2022-09-16T02:04:51.390Z,-10
2022-09-16T02:05:57.665Z,-10
2022-09-16T02:07:03.957Z,-10
2022-09-16T02:08:09.222Z,-10
2022-09-16T02:09:15.497Z,-10
2022-09-16T02:10:21.766Z,-10
2022-09-16T02:11:28.046Z,-10
2022-09-16T02:12:34.312Z,-10
2022-09-16T02:13:40.586Z,-10
2022-09-16T02:14:46.863Z,-10
2022-09-16T02:15:52.153Z,-10
2022-09-16T02:16:57.445Z,-10
2022-09-16T02:18:03.714Z,-10
2022-09-16T02:19:09.993Z,-10
2022-09-16T02:20:16.265Z,-10
2022-09-16T02:21:21.584Z,-10
2022-09-16T02:22:26.853Z,-10
2022-09-16T02:23:33.122Z,-10
2022-09-16T02:24:39.411Z,-10
2022-09-16T02:25:45.667Z,-10
2022-09-16T02:26:51.952Z,-10
2022-09-16T02:27:58.214Z,-10
2022-09-16T02:29:04.486Z,-10
2022-09-16T02:30:10.757Z,-10
2022-09-16T02:31:17.043Z,-10
2022-09-16T02:32:23.305Z,-10
2022-09-16T02:33:29.569Z,-10
2022-09-16T02:34:35.843Z,-10
2022-09-16T02:35:42.123Z,-10
2022-09-16T02:36:47.416Z,-10
2022-09-16T02:37:53.687Z,-10
2022-09-16T02:38:59.950Z,-10
2022-09-16T02:40:06.225Z,-10
2022-09-16T02:41:12.494Z,-10
2022-09-16T02:42:18.759Z,-10
2022-09-16T02:43:25.039Z,-10
2022-09-16T02:44:31.309Z,-10
2022-09-16T02:45:37.587Z,-10
2022-09-16T02:46:43.855Z,-10
2022-09-16T02:47:49.153Z,-10
2022-09-16T02:48:54.446Z,-10
2022-09-16T02:50:00.714Z,-10
2022-09-16T02:51:06.009Z,-10
2022-09-16T02:52:11.299Z,-10
2022-09-16T02:53:17.574Z,-10
2022-09-16T02:54:23.859Z,-10
2022-09-16T02:55:30.128Z,-10
2022-09-16T02:56:36.406Z,-10
2022-09-16T02:57:42.660Z,-10
2022-09-16T02:58:48.943Z,-10
2022-09-16T02:59:55.210Z,-10
2022-09-16T03:01:01.518Z,-10
2022-09-16T03:02:07.749Z,-10
2022-09-16T03:03:14.023Z,-10
2022-09-16T03:04:20.290Z,-10
2022-09-16T03:05:26.570Z,-10
2022-09-16T03:06:31.855Z,-10
2022-09-16T03:07:38.139Z,-10
2022-09-16T03:08:44.397Z,-10
2022-09-16T03:09:50.673Z,-10
2022-09-16T03:10:56.943Z,-10
2022-09-16T03:12:03.222Z,-10
2022-09-16T03:13:09.491Z,-10
2022-09-16T03:14:14.785Z,-10
2022-09-16T03:15:20.072Z,-10
2022-09-16T03:16:25.402Z,-10
2022-09-16T03:17:30.662Z,-10
2022-09-16T03:18:36.949Z,-10
2022-09-16T03:19:43.214Z,-10
2022-09-16T03:20:49.482Z,-10
2022-09-16T03:21:55.760Z,-10
2022-09-16T03:23:02.022Z,-10
2022-09-16T03:24:08.550Z,-10
2022-09-16T03:25:14.565Z,-10
2022-09-16T03:26:20.848Z,-10
2022-09-16T03:27:27.113Z,-10
2022-09-16T03:28:33.387Z,-10
2022-09-16T03:29:39.779Z,-10
2022-09-16T03:30:46.099Z,-10
2022-09-16T03:31:51.358Z,-10
2022-09-16T03:32:57.561Z,-10
2022-09-16T03:34:03.840Z,-10
2022-09-16T03:35:10.130Z,-10
2022-09-16T03:36:16.403Z,-10
2022-09-16T03:37:22.586Z,-10
2022-09-16T03:38:28.940Z,-10
2022-09-16T03:39:34.233Z,-10
2022-09-16T03:40:39.444Z,-10
2022-09-16T03:41:44.740Z,-10
2022-09-16T03:42:50.106Z,-10
2022-09-16T03:43:55.361Z,-10
2022-09-16T03:45:01.595Z,-10
2022-09-16T03:46:07.938Z,-10
2022-09-16T03:47:14.211Z,-10
2022-09-16T03:48:20.406Z,-10
2022-09-16T03:49:26.678Z,-10
2022-09-16T03:50:32.964Z,-10
2022-09-16T03:51:39.324Z,-10
2022-09-16T03:52:45.570Z,-10
2022-09-16T03:53:51.848Z,-10
2022-09-16T03:54:58.042Z,-10
2022-09-16T03:56:04.311Z,-10
2022-09-16T03:57:10.586Z,-10
2022-09-16T03:58:15.982Z,-10
2022-09-16T03:59:22.141Z,-10
2022-09-16T04:00:28.417Z,-10
2022-09-16T04:01:34.692Z,-10
2022-09-16T04:02:41.073Z,-10
2022-09-16T04:03:47.241Z,-10
2022-09-16T04:04:53.506Z,-10
2022-09-16T04:05:58.807Z,-10
2022-09-16T04:07:04.092Z,-10
2022-09-16T04:08:09.408Z,-10
2022-09-16T04:09:14.681Z,-10
2022-09-16T04:10:20.952Z,-10
2022-09-16T04:11:27.225Z,-10
2022-09-16T04:12:33.509Z,-10
2022-09-16T04:13:39.767Z,-10
2022-09-16T04:14:46.045Z,-10
2022-09-16T04:15:52.315Z,-10
2022-09-16T04:16:58.586Z,-10
2022-09-16T04:18:04.864Z,-10
2022-09-16T04:19:11.199Z,-10
2022-09-16T04:20:17.447Z,-10
2022-09-16T04:21:23.674Z,-10
2022-09-16T04:22:29.950Z,-10
2022-09-16T04:23:35.234Z,-10
2022-09-16T04:24:41.583Z,-10
2022-09-16T04:25:47.780Z,-10
2022-09-16T04:26:54.054Z,-10
2022-09-16T04:28:00.323Z,-9
2022-09-16T04:29:06.593Z,-10
2022-09-16T04:30:12.876Z,-10
2022-09-16T04:31:18.165Z,-10
2022-09-16T04:32:23.468Z,-10
2022-09-16T04:33:29.725Z,-10
2022-09-16T04:34:35.052Z,-10
2022-09-16T04:35:40.343Z,-10
2022-09-16T04:36:46.581Z,-7
2022-09-16T04:37:52.859Z,-8
2022-09-16T04:38:59.135Z,-10
2022-09-16T04:40:05.402Z,-9
2022-09-16T04:41:11.679Z,-10
2022-09-16T04:42:17.953Z,-9
2022-09-16T04:43:24.219Z,-6
2022-09-16T04:44:30.490Z,-10
2022-09-16T04:45:36.770Z,-10
2022-09-16T04:46:43.057Z,-10
2022-09-16T04:47:49.317Z,-10
2022-09-16T04:48:55.587Z,-10
2022-09-16T04:50:00.901Z,-10
2022-09-16T04:51:07.157Z,-10
2022-09-16T04:52:13.441Z,-10
2022-09-16T04:53:19.684Z,-10
2022-09-16T04:54:25.956Z,-10
2022-09-16T04:55:32.231Z,-10
2022-09-16T04:56:38.506Z,-10
2022-09-16T04:57:43.828Z,-10
2022-09-16T04:58:49.091Z,-7
2022-09-16T04:59:54.388Z,-10
2022-09-16T05:00:59.679Z,-10
2022-09-16T05:02:05.948Z,-10
2022-09-16T05:03:12.219Z,-8
2022-09-16T05:04:18.493Z,-5
2022-09-16T05:05:24.774Z,-7
2022-09-16T05:06:31.051Z,-8
2022-09-16T05:07:37.304Z,-6
2022-09-16T05:08:43.580Z,-5
2022-09-16T05:09:49.849Z,-2
2022-09-16T05:10:56.119Z,0
2022-09-16T05:12:02.417Z,-9
2022-09-16T05:13:08.665Z,-7
2022-09-16T05:14:14.956Z,-5
2022-09-16T05:15:20.231Z,-1
2022-09-16T05:16:26.498Z,-6
2022-09-16T05:17:32.778Z,-7
2022-09-16T05:18:39.040Z,-10
2022-09-16T05:19:45.319Z,-10
2022-09-16T05:20:51.593Z,-10
2022-09-16T05:21:57.865Z,-10
2022-09-16T05:23:03.158Z,-10
2022-09-16T05:24:08.447Z,-10
2022-09-16T05:25:13.751Z,-10
2022-09-16T05:26:19.041Z,-10
2022-09-16T05:27:25.329Z,-10
2022-09-16T05:28:31.577Z,-8
2022-09-16T05:29:37.850Z,-6
2022-09-16T05:30:44.141Z,-2
2022-09-16T05:31:50.394Z,-4
2022-09-16T05:32:56.691Z,-3
2022-09-16T05:34:02.952Z,-6
2022-09-16T05:35:09.229Z,-1
2022-09-16T05:36:15.492Z,-4
2022-09-16T05:37:21.761Z,-8
2022-09-16T05:38:28.043Z,-3
2022-09-16T05:39:34.297Z,2
2022-09-16T05:40:39.599Z,0
2022-09-16T05:41:45.860Z,-10
2022-09-16T05:42:52.136Z,-10
2022-09-16T05:43:58.420Z,-10
2022-09-16T05:45:04.686Z,-10
2022-09-16T05:46:10.946Z,-10
2022-09-16T05:47:17.232Z,-10
2022-09-16T05:48:23.552Z,-10
2022-09-16T05:49:29.772Z,-10
2022-09-16T05:50:36.043Z,-10
2022-09-16T05:51:42.311Z,-10
2022-09-16T05:52:48.581Z,-10
2022-09-16T05:53:54.854Z,-10
2022-09-16T05:55:00.147Z,-10
2022-09-16T05:56:06.474Z,-10
2022-09-16T05:57:12.685Z,-10
2022-09-16T05:58:18.955Z,-10
2022-09-16T05:59:25.230Z,-10
2022-09-16T06:00:31.506Z,-10
2022-09-16T06:01:37.784Z,-4
2022-09-16T06:02:44.050Z,0
2022-09-16T06:03:50.312Z,6
2022-09-16T06:04:56.591Z,8
2022-09-16T06:06:02.855Z,12
2022-09-16T06:07:09.141Z,10
2022-09-16T06:08:15.403Z,-4
2022-09-16T06:09:20.721Z,-1
2022-09-16T06:10:26.965Z,0
2022-09-16T06:11:33.233Z,-10
2022-09-16T06:12:39.513Z,-10
2022-09-16T06:13:45.786Z,-10
2022-09-16T06:14:52.058Z,-10
2022-09-16T06:15:58.325Z,-10
2022-09-16T06:17:04.599Z,-10
2022-09-16T06:18:10.869Z,-10
2022-09-16T06:19:16.177Z,-10
2022-09-16T06:20:21.472Z,-10
2022-09-16T06:21:26.774Z,-10
2022-09-16T06:22:32.051Z,-10
2022-09-16T06:23:38.325Z,-10
2022-09-16T06:24:44.599Z,-10
2022-09-16T06:25:50.866Z,-10
2022-09-16T06:26:57.139Z,-10
2022-09-16T06:28:03.405Z,-10
2022-09-16T06:29:09.677Z,-10
2022-09-16T06:30:15.971Z,-10
2022-09-16T06:31:22.321Z,-10
2022-09-16T06:32:28.549Z,-10
2022-09-16T06:33:34.769Z,-7
2022-09-16T06:34:41.056Z,-4
2022-09-16T06:35:47.392Z,-6
2022-09-16T06:36:52.602Z,-10
2022-09-16T06:37:58.905Z,-10
2022-09-16T06:39:05.139Z,-8
2022-09-16T06:40:11.433Z,-8
2022-09-16T06:41:17.690Z,0
2022-09-16T06:42:23.976Z,-1
2022-09-16T06:43:30.226Z,2
2022-09-16T06:44:35.546Z,3
2022-09-16T06:45:40.813Z,-1
2022-09-16T06:46:46.137Z,-7
2022-09-16T06:47:51.401Z,-5
2022-09-16T06:48:57.677Z,-6
2022-09-16T06:50:03.969Z,-5
2022-09-16T06:51:10.222Z,-6
2022-09-16T06:52:16.495Z,-10
2022-09-16T06:53:22.766Z,-10
2022-09-16T06:54:29.067Z,-10
2022-09-16T06:55:35.311Z,-10
2022-09-16T06:56:41.619Z,-8
2022-09-16T06:57:47.852Z,-2
2022-09-16T06:58:54.151Z,-5
2022-09-16T07:00:00.402Z,-7
2022-09-16T07:01:06.672Z,-2
2022-09-16T07:02:12.000Z,-10
2022-09-16T07:03:18.230Z,-10
2022-09-16T07:04:24.526Z,-10
2022-09-16T07:05:30.771Z,-7
2022-09-16T07:06:37.057Z,-10
2022-09-16T07:07:43.333Z,-10
2022-09-16T07:08:49.590Z,-6
2022-09-16T07:09:54.889Z,-10
2022-09-16T07:11:00.175Z,-7
2022-09-16T07:12:06.451Z,-10
2022-09-16T07:13:11.752Z,0
2022-09-16T07:14:17.048Z,-7
2022-09-16T07:15:23.316Z,-5
2022-09-16T07:16:29.584Z,-4
2022-09-16T07:17:35.923Z,-4
2022-09-16T07:18:42.245Z,-8
2022-09-16T07:19:48.531Z,-10
2022-09-16T07:20:54.797Z,-10
2022-09-16T07:22:01.076Z,-10
2022-09-16T07:23:06.232Z,-10
2022-09-16T07:24:12.514Z,-10
2022-09-16T07:25:18.779Z,-10
2022-09-16T07:26:25.105Z,-10
2022-09-16T07:27:31.345Z,-10
2022-09-16T07:28:37.627Z,-10
2022-09-16T07:29:43.987Z,-10
2022-09-16T07:30:50.308Z,-8
2022-09-16T07:31:56.488Z,-10
2022-09-16T07:33:02.692Z,-10
2022-09-16T07:34:09.053Z,-10
2022-09-16T07:35:15.280Z,-10
2022-09-16T07:36:21.505Z,-10
2022-09-16T07:37:26.792Z,-8
2022-09-16T07:38:33.133Z,-4
2022-09-16T07:39:39.372Z,-10
2022-09-16T07:40:45.606Z,-4
2022-09-16T07:41:51.907Z,-7
2022-09-16T07:42:58.172Z,-10
2022-09-16T07:44:04.562Z,-10
2022-09-16T07:45:10.741Z,-10
2022-09-16T07:46:17.004Z,-10
2022-09-16T07:47:23.248Z,-10
2022-09-16T07:48:29.501Z,-10
2022-09-16T07:49:35.834Z,-10
2022-09-16T07:50:42.047Z,-10
2022-09-16T07:51:47.333Z,-10
2022-09-16T07:52:53.713Z,-10
2022-09-16T07:53:59.966Z,-10
2022-09-16T07:55:06.216Z,-10
2022-09-16T07:56:12.485Z,-10
2022-09-16T07:57:18.796Z,-10
2022-09-16T07:58:24.990Z,-10
2022-09-16T07:59:31.323Z,-10
2022-09-16T08:00:37.520Z,-10
2022-09-16T08:01:43.869Z,-10
2022-09-16T08:02:50.058Z,-10
2022-09-16T08:03:56.408Z,-10
2022-09-16T08:05:02.691Z,-10
2022-09-16T08:06:08.045Z,-10
2022-09-16T08:07:14.303Z,-10
2022-09-16T08:08:20.583Z,-10
2022-09-16T08:09:26.836Z,-10
2022-09-16T08:10:32.980Z,-10
2022-09-16T08:11:39.251Z,-10
2022-09-16T08:12:45.523Z,-10
2022-09-16T08:13:51.935Z,-10
2022-09-16T08:14:58.160Z,-10
2022-09-16T08:16:04.352Z,-10
2022-09-16T08:17:10.700Z,-10
2022-09-16T08:18:15.940Z,-9
2022-09-16T08:19:21.204Z,-10
2022-09-16T08:20:26.520Z,-10
2022-09-16T08:21:31.862Z,-10
2022-09-16T08:22:38.111Z,-10
2022-09-16T08:23:44.339Z,-7
2022-09-16T08:24:50.741Z,-7
2022-09-16T08:25:56.877Z,-1
2022-09-16T08:27:03.178Z,-10
2022-09-16T08:28:09.454Z,-9
2022-09-16T08:29:15.687Z,-10
2022-09-16T08:30:21.985Z,-3
2022-09-16T08:31:28.277Z,-10
2022-09-16T08:32:34.529Z,-10
2022-09-16T08:33:40.821Z,-10
2022-09-16T08:34:47.110Z,-10
2022-09-16T08:35:52.350Z,-7
2022-09-16T08:36:58.625Z,-3
2022-09-16T08:38:04.925Z,0
2022-09-16T08:39:11.183Z,3
2022-09-16T08:40:17.459Z,2
2022-09-16T08:41:23.751Z,-4
2022-09-16T08:42:29.999Z,-7
2022-09-16T08:43:35.312Z,-4
2022-09-16T08:44:40.557Z,-10
2022-09-16T08:45:45.934Z,-10
2022-09-16T08:46:51.146Z,-10
2022-09-16T08:47:57.548Z,-10
2022-09-16T08:49:03.777Z,-10
2022-09-16T08:50:10.007Z,-10
2022-09-16T08:51:16.337Z,-10
2022-09-16T08:52:22.559Z,-10
2022-09-16T08:53:28.877Z,-10
2022-09-16T08:54:35.052Z,-10
2022-09-16T08:55:41.372Z,-10
2022-09-16T08:56:47.651Z,-10
2022-09-16T08:57:53.882Z,-10
2022-09-16T08:59:00.181Z,-10
2022-09-16T09:00:06.418Z,-10
2022-09-16T09:01:11.709Z,-10
2022-09-16T09:02:18.126Z,-10
2022-09-16T09:03:24.324Z,-10
2022-09-16T09:04:30.601Z,-10
2022-09-16T09:05:36.796Z,-10
2022-09-16T09:06:43.060Z,-10
2022-09-16T09:07:49.322Z,-10
2022-09-16T09:08:54.636Z,-10
2022-09-16T09:09:59.984Z,-10
2022-09-16T09:11:06.305Z,-10
2022-09-16T09:12:12.577Z,-10
2022-09-16T09:13:17.949Z,-10
2022-09-16T09:14:23.162Z,-10
2022-09-16T09:15:29.375Z,-10
2022-09-16T09:16:35.588Z,-10
2022-09-16T09:17:41.866Z,-10
2022-09-16T09:18:48.138Z,-10
2022-09-16T09:19:54.416Z,-10
2022-09-16T09:21:00.753Z,-10
2022-09-16T09:22:06.991Z,-10
2022-09-16T09:23:13.253Z,-10
2022-09-16T09:24:19.515Z,-10
2022-09-16T09:25:25.787Z,-4
2022-09-16T09:26:32.120Z,-6
2022-09-16T09:27:38.320Z,-10
2022-09-16T09:28:43.601Z,-10
2022-09-16T09:29:49.989Z,-10
2022-09-16T09:30:56.147Z,-10
2022-09-16T09:32:02.436Z,-8
2022-09-16T09:33:08.691Z,-10
2022-09-16T09:34:15.111Z,-10
2022-09-16T09:35:21.248Z,-10
2022-09-16T09:36:26.597Z,-10
2022-09-16T09:37:31.903Z,-7
2022-09-16T09:38:37.192Z,-6
2022-09-16T09:39:42.417Z,-9
2022-09-16T09:40:48.770Z,-9
2022-09-16T09:41:54.947Z,-10
2022-09-16T09:43:01.248Z,-10
2022-09-16T09:44:07.643Z,-5
2022-09-16T09:45:13.888Z,-10
2022-09-16T09:46:20.064Z,-5
2022-09-16T09:47:26.445Z,-6
2022-09-16T09:48:32.584Z,0
2022-09-16T09:49:38.874Z,-1
2022-09-16T09:50:45.220Z,-7
2022-09-16T09:51:51.397Z,-4
2022-09-16T09:52:57.704Z,-5
2022-09-16T09:54:02.977Z,0
2022-09-16T09:55:09.284Z,2
2022-09-16T09:56:15.509Z,-10
2022-09-16T09:57:21.895Z,-8
2022-09-16T09:58:28.128Z,-8
2022-09-16T09:59:34.399Z,-10
2022-09-16T10:00:40.614Z,-10
2022-09-16T10:01:45.885Z,-5
2022-09-16T10:02:51.192Z,-4
2022-09-16T10:03:56.475Z,-10
2022-09-16T10:05:01.764Z,-10
2022-09-16T10:06:08.101Z,-10
2022-09-16T10:07:14.305Z,-10
2022-09-16T10:08:20.613Z,-10
2022-09-16T10:09:26.886Z,-10
2022-09-16T10:10:33.154Z,-10
2022-09-16T10:11:39.408Z,-10
2022-09-16T10:12:45.681Z,-8
2022-09-16T10:13:51.954Z,-1
2022-09-16T10:14:58.266Z,-5
2022-09-16T10:16:04.487Z,-6
2022-09-16T10:17:10.792Z,-3
2022-09-16T10:18:17.038Z,0
2022-09-16T10:19:22.311Z,3
2022-09-16T10:20:28.596Z,4
2022-09-16T10:21:34.906Z,2
2022-09-16T10:22:41.169Z,0
2022-09-16T10:23:47.448Z,2
2022-09-16T10:24:53.677Z,12
2022-09-16T10:26:00.010Z,6
2022-09-16T10:27:05.324Z,-10
2022-09-16T10:28:10.597Z,-5
2022-09-16T10:29:16.804Z,-3
2022-09-16T10:30:23.073Z,-1
2022-09-16T10:31:29.353Z,-4
2022-09-16T10:32:35.619Z,-4
2022-09-16T10:33:41.911Z,-2
2022-09-16T10:34:48.162Z,3
2022-09-16T10:35:54.465Z,-5
2022-09-16T10:37:00.709Z,-1
2022-09-16T10:38:06.978Z,-1
2022-09-16T10:39:13.258Z,-1
2022-09-16T10:40:19.529Z,2
2022-09-16T10:41:25.791Z,-6
2022-09-16T10:42:31.087Z,-8
2022-09-16T10:43:37.359Z,-10
2022-09-16T10:44:43.636Z,-2
2022-09-16T10:45:49.902Z,-7
2022-09-16T10:46:56.225Z,-5
2022-09-16T10:48:02.443Z,-1
2022-09-16T10:49:08.710Z,-10
2022-09-16T10:50:14.016Z,-9
2022-09-16T10:51:19.305Z,1
2022-09-16T10:52:24.618Z,5
2022-09-16T10:53:29.950Z,-5
2022-09-16T10:54:35.182Z,-1
2022-09-16T10:55:40.528Z,2
2022-09-16T10:56:46.740Z,2
2022-09-16T10:57:53.066Z,6
2022-09-16T10:58:59.340Z,-6
2022-09-16T11:00:05.567Z,-6
2022-09-16T11:01:11.832Z,-2
2022-09-16T11:02:18.109Z,5
2022-09-16T11:03:24.371Z,2
2022-09-16T11:04:29.690Z,3
2022-09-16T11:05:35.945Z,11
2022-09-16T11:06:42.248Z,4
2022-09-16T11:07:48.499Z,5
2022-09-16T11:08:54.843Z,5
2022-09-16T11:10:01.044Z,8
2022-09-16T11:11:07.305Z,12
2022-09-16T11:12:13.579Z,6
2022-09-16T11:13:19.846Z,-4
2022-09-16T11:14:26.144Z,-1
2022-09-16T11:15:32.420Z,0
2022-09-16T11:16:38.723Z,-3
2022-09-16T11:17:43.959Z,-4
2022-09-16T11:18:49.251Z,-1
2022-09-16T11:19:55.524Z,6
2022-09-16T11:21:01.901Z,0
2022-09-16T11:22:08.182Z,0
2022-09-16T11:23:14.390Z,-4
2022-09-16T11:24:20.623Z,-4
2022-09-16T11:25:26.887Z,-10
2022-09-16T11:26:33.176Z,-9
2022-09-16T11:27:38.471Z,-9
2022-09-16T11:28:43.769Z,-7
2022-09-16T11:29:50.103Z,-7
2022-09-16T11:30:56.312Z,2
2022-09-16T11:32:02.563Z,-3
2022-09-16T11:33:08.827Z,4
2022-09-16T11:34:15.151Z,6
2022-09-16T11:35:21.374Z,5
2022-09-16T11:36:27.638Z,6
2022-09-16T11:37:33.939Z,-10
2022-09-16T11:38:40.216Z,-10
2022-09-16T11:39:46.605Z,-7
2022-09-16T11:40:52.838Z,-8
2022-09-16T11:41:59.037Z,-10
2022-09-16T11:43:04.401Z,-10
2022-09-16T11:44:10.604Z,-10
2022-09-16T11:45:16.831Z,-8
2022-09-16T11:46:23.138Z,-7
2022-09-16T11:47:29.432Z,-8
2022-09-16T11:48:35.724Z,-10
2022-09-16T11:49:41.983Z,-10
2022-09-16T11:50:47.350Z,-9
2022-09-16T11:51:52.635Z,-9
2022-09-16T11:52:58.939Z,-10
2022-09-16T11:54:04.200Z,-10
2022-09-16T11:55:09.428Z,-7
2022-09-16T11:56:15.672Z,-10
2022-09-16T11:57:21.929Z,-10
2022-09-16T11:58:28.184Z,-9
2022-09-16T11:59:34.494Z,-10
2022-09-16T12:00:40.725Z,-10
2022-09-16T12:01:47.000Z,-9
2022-09-16T12:02:53.269Z,-10
2022-09-16T12:03:59.553Z,-10
2022-09-16T12:05:05.816Z,-10
2022-09-16T12:06:12.131Z,-10
2022-09-16T12:07:18.426Z,-10
2022-09-16T12:08:24.708Z,-10
2022-09-16T12:09:29.930Z,-10
2022-09-16T12:10:36.200Z,-10
2022-09-16T12:11:42.463Z,-10
2022-09-16T12:12:48.804Z,-10
2022-09-16T12:13:55.050Z,-10
2022-09-16T12:15:01.285Z,-10
2022-09-16T12:16:07.579Z,-10
2022-09-16T12:17:13.838Z,-10
2022-09-16T12:18:20.167Z,-10
2022-09-16T12:19:26.365Z,-10
2022-09-16T12:20:32.678Z,-10
2022-09-16T12:21:38.918Z,-10
2022-09-16T12:22:45.199Z,-10
2022-09-16T12:23:50.473Z,-10
2022-09-16T12:24:56.742Z,-10
2022-09-16T12:26:03.031Z,-10
2022-09-16T12:27:09.285Z,-10
2022-09-16T12:28:15.614Z,-10
2022-09-16T12:29:21.847Z,-10
2022-09-16T12:30:28.120Z,-10
2022-09-16T12:31:34.376Z,-10
2022-09-16T12:32:40.661Z,-10
2022-09-16T12:33:46.918Z,-10
2022-09-16T12:34:53.210Z,-10
2022-09-16T12:35:59.472Z,-10
2022-09-16T12:37:05.787Z,-10
2022-09-16T12:38:11.026Z,-10
2022-09-16T12:39:17.292Z,-10
2022-09-16T12:40:23.566Z,-10
2022-09-16T12:41:29.887Z,-10
2022-09-16T12:42:36.172Z,-10
2022-09-16T12:43:42.399Z,-10
2022-09-16T12:44:48.659Z,-10
2022-09-16T12:45:55.031Z,-10
2022-09-16T12:47:01.205Z,-10
2022-09-16T12:48:07.533Z,-10
2022-09-16T12:49:13.757Z,-10
2022-09-16T12:50:20.034Z,-10
2022-09-16T12:51:26.437Z,-10
2022-09-16T12:52:31.629Z,-10
2022-09-16T12:53:37.959Z,-10
2022-09-16T12:54:44.184Z,-10
2022-09-16T12:55:50.456Z,-10
2022-09-16T12:56:56.779Z,-10
2022-09-16T12:58:02.959Z,-10
2022-09-16T12:59:09.271Z,-10
2022-09-16T13:00:15.519Z,-10
2022-09-16T13:01:21.776Z,-10
2022-09-16T13:02:28.055Z,-10
2022-09-16T13:03:34.292Z,-10
2022-09-16T13:04:40.615Z,-10
2022-09-16T13:05:46.853Z,-10
2022-09-16T13:06:52.154Z,-10
2022-09-16T13:07:58.413Z,-10
2022-09-16T13:09:04.684Z,-10
2022-09-16T13:10:10.951Z,-10
2022-09-16T13:11:17.224Z,-10
2022-09-16T13:12:23.502Z,-10
2022-09-16T13:13:29.777Z,-10
2022-09-16T13:14:36.115Z,-10
2022-09-16T13:15:42.314Z,-10
2022-09-16T13:16:47.657Z,-10
2022-09-16T13:17:52.898Z,-10
2022-09-16T13:18:59.178Z,-10
2022-09-16T13:20:05.486Z,-10
2022-09-16T13:21:10.744Z,-10
2022-09-16T13:22:16.086Z,-10
2022-09-16T13:23:22.297Z,-10
2022-09-16T13:24:28.579Z,-10
2022-09-16T13:25:34.861Z,-10
2022-09-16T13:26:41.130Z,-10
2022-09-16T13:27:47.396Z,-10
2022-09-16T13:28:53.695Z,-10
2022-09-16T13:29:59.956Z,-10
2022-09-16T13:31:06.206Z,-10
2022-09-16T13:32:12.490Z,-10
2022-09-16T13:33:18.748Z,-10
2022-09-16T13:34:25.024Z,-10
2022-09-16T13:35:31.333Z,-10
2022-09-16T13:36:36.630Z,-10
2022-09-16T13:37:42.852Z,-10
2022-09-16T13:38:49.152Z,-10
2022-09-16T13:39:55.402Z,-10
2022-09-16T13:41:01.701Z,-10
2022-09-16T13:42:07.943Z,-10
2022-09-16T13:43:14.221Z,-10
2022-09-16T13:44:19.513Z,-10
2022-09-16T13:45:24.804Z,-10
2022-09-16T13:46:30.109Z,-10
2022-09-16T13:47:35.409Z,-10
2022-09-16T13:48:41.667Z,-10
2022-09-16T13:49:47.933Z,-10
2022-09-16T13:50:54.213Z,-10
2022-09-16T13:52:00.492Z,-10
2022-09-16T13:53:06.748Z,-10
2022-09-16T13:54:13.025Z,-10
2022-09-16T13:55:19.292Z,-10
2022-09-16T13:56:25.566Z,-10
2022-09-16T13:57:31.840Z,-10
2022-09-16T13:58:38.113Z,-10
2022-09-16T13:59:44.413Z,-10
2022-09-16T14:00:50.663Z,-10
2022-09-16T14:01:55.950Z,-10
2022-09-16T14:03:02.212Z,-10
2022-09-16T14:04:08.557Z,-10
2022-09-16T14:05:14.787Z,-10
2022-09-16T14:06:21.039Z,-10
2022-09-16T14:07:27.310Z,-10
2022-09-16T14:08:33.599Z,-10
2022-09-16T14:09:39.846Z,-10
2022-09-16T14:10:46.123Z,-10
2022-09-16T14:11:52.389Z,-10
2022-09-16T14:12:58.663Z,-10
2022-09-16T14:14:05.017Z,-10
2022-09-16T14:15:11.346Z,-10
2022-09-16T14:16:16.623Z,-10
2022-09-16T14:17:22.916Z,-10
2022-09-16T14:18:29.165Z,-10
2022-09-16T14:19:35.446Z,-10
2022-09-16T14:20:41.588Z,-10
2022-09-16T14:21:47.965Z,-10
2022-09-16T14:22:54.243Z,-10
2022-09-16T14:24:00.516Z,-10
2022-09-16T14:25:06.802Z,-10
2022-09-16T14:26:13.085Z,-10
2022-09-16T14:27:19.382Z,-10
2022-09-16T14:28:25.622Z,-10
2022-09-16T14:29:31.907Z,-10
2022-09-16T14:30:37.168Z,-10
2022-09-16T14:31:43.425Z,-10
2022-09-16T14:32:49.736Z,-10
2022-09-16T14:33:55.974Z,-10
2022-09-16T14:35:02.312Z,-10
2022-09-16T14:36:08.481Z,-10
2022-09-16T14:37:14.821Z,-10
2022-09-16T14:38:21.091Z,-10
2022-09-16T14:39:27.402Z,-10
2022-09-16T14:40:33.525Z,-10
2022-09-16T14:41:39.781Z,-10
2022-09-16T14:42:46.164Z,-10
2022-09-16T14:43:52.425Z,-10
2022-09-16T14:44:57.739Z,-10
2022-09-16T14:46:03.038Z,-10
2022-09-16T14:47:08.255Z,-10
2022-09-16T14:48:13.500Z,-10
2022-09-16T14:49:19.893Z,-10
2022-09-16T14:50:26.034Z,-10
2022-09-16T14:51:32.453Z,-10
2022-09-16T14:52:38.752Z,-10
2022-09-16T14:53:44.970Z,-10
2022-09-16T14:54:51.260Z,-10
2022-09-16T14:55:57.542Z,-10
2022-09-16T14:57:03.787Z,-10
2022-09-16T14:58:09.941Z,-10
2022-09-16T14:59:16.306Z,-10
2022-09-16T15:00:22.487Z,-10
2022-09-16T15:01:28.890Z,-10
2022-09-16T15:02:34.204Z,-10
2022-09-16T15:03:40.467Z,-10
2022-09-16T15:04:46.741Z,-10
2022-09-16T15:05:53.005Z,-10
2022-09-16T15:06:59.280Z,-10
2022-09-16T15:08:05.548Z,-10
2022-09-16T15:09:11.800Z,-10
2022-09-16T15:10:17.152Z,-10
2022-09-16T15:11:22.398Z,-10
2022-09-16T15:12:27.710Z,-10
2022-09-16T15:13:32.995Z,-10
2022-09-16T15:14:39.121Z,-10
2022-09-16T15:15:48.451Z,-10
2022-09-16T15:16:51.868Z,-10
2022-09-16T15:17:58.105Z,-10
2022-09-16T15:19:04.415Z,-10